PILOTS ONLINE: 330    ATC ONLINE: 45

KNSE

Whiting Field Naval Air Station North Airport

Location

City Milton
Country  United States
Latitude 30° 43' 27" N
Longitude 87° 1' 18" W
Elevation 199 ft
Type Medium Airport

Map

Weather

METAR
2014/10/25 02:56
KNSE 250256Z 34003KT 10SM CLR 13/07 A3006 RMK AO2 SLP166 T01330067 51013 $
TAF
2014/10/24 23:54
TAF KNSE 2423/2523 36004KT 9999 FEW200 QNH3001INS 
     FM250300 36004KT 9999 SKC QNH3004INS 
     FM251400 36008KT 9999 SKC QNH3005INS 
      TEMPO 2517/2522 01010G15KT AUTOMATED SENSOR METWATCH 2504 TIL 2513 T08/2512Z T23/2521Z FN20030

Runways

05/23 6000 ft / 200 ft
09/27 6000 ft / 200 ft
14/32 6000 ft / 200 ft
18/36 6000 ft / 200 ft

Outbound flights

Callsign Flying to Pilot ATD/STD ETA Aircraft

Inbound flights

Callsign Flying from Pilot ATD ETA Aircraft